createdAt,value
2019-03-21T00:00:25.899Z,86.89
2019-03-21T00:01:25.930Z,86.79
2019-03-21T00:02:25.862Z,86.58
2019-03-21T00:03:25.941Z,86.48
2019-03-21T00:04:25.920Z,86.89
2019-03-21T00:05:25.958Z,86.99
2019-03-21T00:06:25.820Z,86.99
2019-03-21T00:07:25.862Z,86.89
2019-03-21T00:08:25.817Z,86.89
2019-03-21T00:09:25.901Z,86.27
2019-03-21T00:10:25.806Z,86.83
2019-03-21T00:11:25.898Z,86.79
2019-03-21T00:12:25.763Z,86.58
2019-03-21T00:13:25.813Z,86.83
2019-03-21T00:14:25.773Z,86.79
2019-03-21T00:15:25.830Z,86.93
2019-03-21T00:16:25.728Z,86.83
2019-03-21T00:17:25.842Z,86.83
2019-03-21T00:18:25.737Z,87.04
2019-03-21T00:19:25.768Z,87.24
2019-03-21T00:20:25.667Z,86.72
2019-03-21T00:21:25.754Z,86.83
2019-03-21T00:22:25.667Z,86.62
2019-03-21T00:23:25.679Z,86.93
2019-03-21T00:24:25.618Z,87.04
2019-03-21T00:25:25.699Z,87.45
2019-03-21T00:26:25.612Z,87.59
2019-03-21T00:27:25.705Z,87.24
2019-03-21T00:28:25.577Z,87.18
2019-03-21T00:29:25.614Z,87.04
2019-03-21T00:30:25.584Z,86.83
2019-03-21T00:31:25.630Z,87.07
2019-03-21T00:32:25.545Z,86.87
2019-03-21T00:33:25.632Z,86.87
2019-03-21T00:34:25.518Z,86.77
2019-03-21T00:35:25.569Z,86.97
2019-03-21T00:36:25.499Z,87.38
2019-03-21T00:37:25.576Z,87.28
2019-03-21T00:38:25.476Z,87.94
2019-03-21T00:39:32.663Z,88.04
2019-03-21T00:40:26.468Z,88.24
2019-03-21T00:41:25.477Z,87.94
2019-03-21T00:42:25.423Z,87.87
2019-03-21T00:44:26.542Z,88.49
2019-03-21T00:45:25.535Z,88.70
2019-03-21T00:46:25.376Z,89.01
2019-03-21T00:47:25.433Z,88.84
2019-03-21T00:48:25.367Z,89.36
2019-03-21T00:49:25.452Z,89.36
2019-03-21T00:50:25.354Z,88.74
2019-03-21T00:51:25.373Z,88.89
2019-03-21T00:52:25.315Z,88.89
2019-03-21T00:54:26.418Z,88.92
2019-03-21T00:55:25.372Z,88.89
2019-03-21T00:56:25.295Z,89.19
2019-03-21T00:57:25.282Z,89.03
2019-03-21T00:58:25.251Z,89.85
2019-03-21T00:59:25.322Z,89.85
2019-03-21T01:00:25.226Z,90.26
2019-03-21T01:01:25.340Z,90.00
2019-03-21T01:02:25.201Z,89.89
2019-03-21T01:03:25.228Z,90.20
2019-03-21T01:04:25.200Z,91.24
2019-03-21T01:05:25.237Z,91.96
2019-03-21T01:06:25.211Z,91.54
2019-03-21T01:07:25.259Z,91.64
2019-03-21T01:08:25.150Z,91.64
2019-03-21T01:09:25.173Z,91.44
2019-03-21T01:10:25.107Z,91.44
2019-03-21T01:11:25.202Z,91.38
2019-03-21T01:12:25.086Z,91.69
2019-03-21T01:13:25.190Z,91.38
2019-03-21T01:14:29.676Z,91.89
2019-03-21T01:15:26.075Z,91.58
2019-03-21T01:16:25.092Z,92.21
2019-03-21T01:17:25.038Z,92.04
2019-03-21T01:18:25.053Z,91.94
2019-03-21T01:19:25.135Z,92.35
2019-03-21T01:20:25.054Z,92.46
2019-03-21T01:21:25.075Z,92.46
2019-03-21T01:22:25.005Z,92.55
2019-03-21T01:23:25.076Z,92.66
2019-03-21T01:24:24.960Z,92.60
2019-03-21T01:25:25.070Z,92.66
2019-03-21T01:26:24.929Z,92.80
2019-03-21T01:27:25.008Z,92.50
2019-03-21T01:28:24.922Z,92.60
2019-03-21T01:29:25.002Z,92.50
2019-03-21T01:30:24.897Z,92.50
2019-03-21T01:31:25.956Z,92.64
2019-03-21T01:32:24.866Z,92.50
2019-03-21T01:33:24.933Z,92.70
2019-03-21T01:34:24.851Z,92.80
2019-03-21T01:35:24.889Z,92.91
2019-03-21T01:36:24.853Z,93.26
2019-03-21T01:37:24.875Z,93.47
2019-03-21T01:38:24.806Z,93.01
2019-03-21T01:39:24.862Z,93.53
2019-03-21T01:40:24.791Z,93.68
2019-03-21T01:41:24.883Z,93.53
2019-03-21T01:42:24.792Z,93.32
2019-03-21T01:43:24.801Z,93.43
2019-03-21T01:44:24.752Z,93.57
2019-03-21T01:45:24.797Z,93.73
2019-03-21T01:46:24.721Z,93.84
2019-03-21T01:47:24.845Z,93.43
2019-03-21T01:48:24.693Z,94.04
2019-03-21T01:49:24.722Z,94.09
2019-03-21T01:50:24.677Z,94.25
2019-03-21T01:51:24.765Z,94.15
2019-03-21T01:52:24.675Z,93.73
2019-03-21T01:53:24.751Z,93.84
2019-03-21T01:54:24.624Z,94.04
2019-03-21T01:55:24.666Z,93.90
2019-03-21T01:56:24.606Z,93.69
2019-03-21T01:57:25.728Z,93.38
2019-03-21T01:58:24.581Z,93.49
2019-03-21T01:59:24.688Z,93.38
2019-03-21T02:00:24.577Z,93.59
2019-03-21T02:01:24.603Z,93.49
2019-03-21T02:02:24.571Z,92.76
2019-03-21T02:03:24.618Z,93.28
2019-03-21T02:04:24.511Z,93.28
2019-03-21T02:05:24.533Z,93.07
2019-03-21T02:06:24.494Z,92.97
2019-03-21T02:07:24.575Z,92.55
2019-03-21T02:08:24.511Z,92.76
2019-03-21T02:09:24.562Z,92.46
2019-03-21T02:10:24.490Z,92.76
2019-03-21T02:11:24.483Z,92.66
2019-03-21T02:12:24.520Z,92.97
2019-03-21T02:13:24.480Z,92.55
2019-03-21T02:14:24.415Z,92.35
2019-03-21T02:15:25.049Z,92.97
2019-03-21T02:16:24.419Z,93.28
2019-03-21T02:17:24.415Z,93.59
2019-03-21T02:18:24.404Z,93.28
2019-03-21T02:19:24.424Z,93.69
2019-03-21T02:20:24.354Z,92.82
2019-03-21T02:21:24.449Z,92.82
2019-03-21T02:22:24.317Z,92.66
2019-03-21T02:23:24.394Z,92.97
2019-03-21T02:24:24.338Z,92.72
2019-03-21T02:25:24.373Z,92.31
2019-03-21T02:26:24.290Z,92.00
2019-03-21T02:28:25.370Z,92.21
2019-03-21T02:29:25.340Z,92.21
2019-03-21T02:30:24.232Z,92.31
2019-03-21T02:31:24.297Z,92.16
2019-03-21T02:32:24.214Z,92.51
2019-03-21T02:33:24.380Z,92.37
2019-03-21T02:34:24.222Z,91.79
2019-03-21T02:35:24.233Z,91.96
2019-03-21T02:36:24.204Z,92.27
2019-03-21T02:37:24.249Z,92.27
2019-03-21T02:38:24.146Z,92.47
2019-03-21T02:39:24.194Z,91.85
2019-03-21T02:40:24.122Z,91.64
2019-03-21T02:41:25.695Z,91.44
2019-03-21T02:42:24.101Z,90.92
2019-03-21T02:43:24.187Z,91.34
2019-03-21T02:44:24.120Z,90.72
2019-03-21T02:45:24.095Z,90.41
2019-03-21T02:46:24.049Z,90.10
2019-03-21T02:47:24.104Z,90.31
2019-03-21T02:48:24.030Z,90.10
2019-03-21T02:49:24.104Z,90.61
2019-03-21T02:50:24.022Z,90.72
2019-03-21T02:51:24.022Z,91.13
2019-03-21T02:52:23.990Z,90.51
2019-03-21T02:53:24.048Z,90.10
2019-03-21T02:54:23.996Z,90.51
2019-03-21T02:56:25.090Z,90.10
2019-03-21T02:58:25.052Z,89.89
2019-03-21T02:59:24.009Z,90.10
2019-03-21T03:00:23.896Z,90.10
2019-03-21T03:01:23.991Z,90.51
2019-03-21T03:02:23.889Z,90.51
2019-03-21T03:03:23.912Z,90.41
2019-03-21T03:04:23.879Z,90.72
2019-03-21T03:05:23.931Z,90.51
2019-03-21T03:06:23.881Z,90.41
2019-03-21T03:07:23.936Z,90.92
2019-03-21T03:08:23.812Z,90.55
2019-03-21T03:09:23.829Z,90.41
2019-03-21T03:10:23.783Z,90.61
2019-03-21T03:11:23.863Z,90.97
2019-03-21T03:12:23.770Z,90.72
2019-03-21T03:14:24.895Z,91.24
2019-03-21T03:15:23.803Z,91.03
2019-03-21T03:16:23.734Z,91.96
2019-03-21T03:17:23.802Z,91.44
2019-03-21T03:18:23.705Z,91.96
2019-03-21T03:19:23.748Z,91.03
2019-03-21T03:20:23.671Z,90.61
2019-03-21T03:21:23.739Z,90.41
2019-03-21T03:22:23.665Z,90.41
2019-03-21T03:23:23.801Z,90.20
2019-03-21T03:24:23.672Z,89.79
2019-03-21T03:25:23.673Z,90.00
2019-03-21T03:26:23.622Z,89.95
2019-03-21T03:27:23.666Z,90.20
2019-03-21T03:28:23.586Z,90.06
2019-03-21T03:29:23.680Z,89.58
2019-03-21T03:30:23.591Z,89.44
2019-03-21T03:31:23.572Z,89.69
2019-03-21T03:32:23.593Z,89.75
2019-03-21T03:33:23.607Z,89.65
2019-03-21T03:34:23.538Z,89.48
2019-03-21T03:35:23.650Z,89.54
2019-03-21T03:36:23.512Z,89.48
2019-03-21T03:37:23.530Z,89.38
2019-03-21T03:38:23.487Z,89.48
2019-03-21T03:39:23.546Z,89.48
2019-03-21T03:40:23.481Z,89.28
2019-03-21T03:41:23.560Z,89.17
2019-03-21T03:42:23.473Z,89.07
2019-03-21T03:43:23.472Z,89.17
2019-03-21T03:44:23.420Z,89.28
2019-03-21T03:45:36.641Z,88.86
2019-03-21T03:46:24.431Z,89.58
2019-03-21T03:47:23.397Z,89.58
2019-03-21T03:48:23.373Z,89.69
2019-03-21T03:49:23.415Z,89.54
2019-03-21T03:50:23.382Z,89.58
2019-03-21T03:51:23.428Z,89.28
2019-03-21T03:52:23.324Z,89.48
2019-03-21T03:53:23.352Z,89.38
2019-03-21T03:54:23.301Z,89.07
2019-03-21T03:55:23.362Z,89.38
2019-03-21T03:56:23.315Z,89.28
2019-03-21T03:57:23.308Z,89.69
2019-03-21T03:58:23.269Z,89.58
2019-03-21T03:59:23.280Z,89.17
2019-03-21T04:00:23.243Z,88.86
2019-03-21T04:01:23.336Z,89.07
2019-03-21T04:02:23.222Z,89.48
2019-03-21T04:03:23.308Z,89.48
2019-03-21T04:04:23.201Z,89.38
2019-03-21T04:05:23.216Z,89.69
2019-03-21T04:06:23.190Z,89.17
2019-03-21T04:07:23.232Z,89.17
2019-03-21T04:08:23.149Z,88.86
2019-03-21T04:09:23.254Z,89.38
2019-03-21T04:10:23.182Z,89.28
2019-03-21T04:11:24.205Z,89.58
2019-03-21T04:12:23.096Z,89.58
2019-03-21T04:14:24.198Z,89.89
2019-03-21T04:15:23.183Z,89.89
2019-03-21T04:16:23.090Z,90.10
2019-03-21T04:17:23.138Z,89.79
2019-03-21T04:18:23.053Z,89.48
2019-03-21T04:19:23.109Z,89.85
2019-03-21T04:20:23.006Z,89.89
2019-03-21T04:21:23.199Z,89.69
2019-03-21T04:22:22.995Z,90.00
2019-03-21T04:23:23.045Z,89.95
2019-03-21T04:24:22.962Z,90.00
2019-03-21T04:25:23.067Z,89.89
2019-03-21T04:26:22.987Z,89.89
2019-03-21T04:27:22.967Z,89.28
2019-03-21T04:28:22.939Z,89.48
2019-03-21T04:29:22.991Z,89.69
2019-03-21T04:30:22.900Z,89.38
2019-03-21T04:31:22.999Z,89.69
2019-03-21T04:32:22.915Z,89.48
2019-03-21T04:33:23.198Z,89.69
2019-03-21T04:34:22.860Z,89.58
2019-03-21T04:35:22.913Z,89.38
2019-03-21T04:36:22.849Z,89.38
2019-03-21T04:37:23.069Z,89.48
2019-03-21T04:38:22.830Z,89.48
2019-03-21T04:39:22.839Z,89.38
2019-03-21T04:40:22.810Z,88.86
2019-03-21T04:42:44.771Z,88.96
2019-03-21T04:43:22.757Z,88.96
2019-03-21T04:44:22.869Z,89.17
2019-03-21T04:45:22.739Z,88.96
2019-03-21T04:46:22.797Z,89.28
2019-03-21T04:47:22.747Z,88.96
2019-03-21T04:48:22.820Z,89.17
2019-03-21T04:49:22.711Z,88.86
2019-03-21T04:50:22.709Z,88.86
2019-03-21T04:51:22.663Z,88.65
2019-03-21T04:52:22.719Z,88.45
2019-03-21T04:53:22.682Z,88.76
2019-03-21T04:54:22.650Z,88.96
2019-03-21T04:55:22.650Z,89.13
2019-03-21T04:56:22.626Z,89.07
2019-03-21T04:57:22.637Z,89.38
2019-03-21T04:58:22.690Z,89.79
2019-03-21T04:59:22.591Z,89.28
2019-03-21T05:00:22.684Z,89.69
2019-03-21T05:01:22.564Z,89.28
2019-03-21T05:02:22.601Z,89.69
2019-03-21T05:03:22.562Z,88.86
2019-03-21T05:04:22.602Z,89.38
2019-03-21T05:05:22.513Z,89.48
2019-03-21T05:06:22.508Z,89.28
2019-03-21T05:07:22.493Z,89.28
2019-03-21T05:08:22.563Z,89.69
2019-03-21T05:09:22.483Z,89.69
2019-03-21T05:10:22.471Z,89.38
2019-03-21T05:11:22.451Z,88.96
2019-03-21T05:12:22.590Z,88.76
2019-03-21T05:13:22.465Z,88.76
2019-03-21T05:14:22.465Z,88.86
2019-03-21T05:15:22.410Z,88.90
2019-03-21T05:16:22.475Z,89.38
2019-03-21T05:17:22.391Z,89.07
2019-03-21T05:18:22.531Z,88.86
2019-03-21T05:19:22.376Z,88.86
2019-03-21T05:20:22.422Z,88.31
2019-03-21T05:21:22.353Z,88.04
2019-03-21T05:22:22.419Z,88.04
2019-03-21T05:23:22.352Z,89.28
2019-03-21T05:24:22.436Z,88.86
2019-03-21T05:25:22.293Z,88.86
2019-03-21T05:26:22.361Z,89.07
2019-03-21T05:27:22.292Z,88.86
2019-03-21T05:28:22.389Z,89.17
2019-03-21T05:29:22.271Z,88.86
2019-03-21T05:30:22.275Z,88.86
2019-03-21T05:31:22.648Z,88.86
2019-03-21T05:32:22.287Z,88.96
2019-03-21T05:33:22.232Z,89.48
2019-03-21T05:34:22.360Z,89.28
2019-03-21T05:35:22.185Z,88.76
2019-03-21T05:36:22.221Z,88.45
2019-03-21T05:37:22.182Z,88.76
2019-03-21T05:38:22.421Z,88.86
2019-03-21T05:39:22.216Z,88.92
2019-03-21T05:40:22.245Z,88.51
2019-03-21T05:41:22.644Z,89.28
2019-03-21T05:42:22.158Z,89.23
2019-03-21T05:43:22.101Z,88.56
2019-03-21T05:44:22.195Z,89.28
2019-03-21T05:45:22.080Z,88.82
2019-03-21T05:46:26.933Z,89.03
2019-03-21T05:47:23.047Z,88.82
2019-03-21T05:48:22.087Z,88.86
2019-03-21T05:49:22.063Z,89.03
2019-03-21T05:50:22.103Z,88.76
2019-03-21T05:51:22.024Z,88.76
2019-03-21T05:52:22.139Z,89.07
2019-03-21T05:53:22.004Z,88.86
2019-03-21T05:54:22.272Z,88.65
2019-03-21T05:55:21.998Z,88.56
2019-03-21T05:56:22.450Z,88.82
2019-03-21T05:57:21.967Z,89.17
2019-03-21T05:59:23.071Z,88.96
2019-03-21T06:01:23.049Z,88.56
2019-03-21T06:02:23.929Z,88.96
2019-03-21T06:03:21.880Z,88.76
2019-03-21T06:04:22.846Z,88.86
2019-03-21T06:05:21.862Z,88.96
2019-03-21T06:07:22.956Z,89.22
2019-03-21T06:09:23.055Z,89.32
2019-03-21T06:10:23.096Z,89.42
2019-03-21T06:11:21.787Z,89.52
2019-03-21T06:13:22.929Z,89.94
2019-03-21T06:15:22.897Z,90.28
2019-03-21T06:16:23.725Z,90.70
2019-03-21T06:17:21.729Z,90.59
2019-03-21T06:18:23.937Z,91.01
2019-03-21T06:19:21.695Z,90.49
2019-03-21T06:20:24.089Z,90.19
2019-03-21T06:21:21.674Z,90.49
2019-03-21T06:22:24.068Z,90.08
2019-03-21T06:23:21.646Z,90.59
2019-03-21T06:24:24.183Z,90.80
2019-03-21T06:25:21.668Z,90.64
2019-03-21T06:26:24.346Z,90.80
2019-03-21T06:27:21.608Z,90.80
2019-03-21T06:28:24.533Z,90.70
2019-03-21T06:29:21.588Z,90.08
2019-03-21T06:30:25.075Z,90.59
2019-03-21T06:31:21.587Z,90.80
2019-03-21T06:33:22.670Z,90.70
2019-03-21T06:35:22.709Z,90.08
2019-03-21T06:37:22.640Z,90.28
2019-03-21T06:38:25.095Z,90.08
2019-03-21T06:39:21.467Z,90.39
2019-03-21T06:40:25.355Z,90.39
2019-03-21T06:41:21.468Z,89.87
2019-03-21T06:43:21.452Z,89.77
2019-03-21T06:44:25.247Z,89.36
2019-03-21T06:45:21.404Z,89.67
2019-03-21T06:46:23.456Z,89.67
2019-03-21T06:47:21.388Z,89.98
2019-03-21T06:48:23.533Z,89.42
2019-03-21T06:49:21.377Z,89.94
2019-03-21T06:50:21.398Z,89.94
2019-03-21T06:51:21.385Z,90.04
2019-03-21T06:52:21.406Z,90.14
2019-03-21T06:53:21.317Z,90.66
2019-03-21T06:54:21.416Z,90.66
2019-03-21T06:55:21.292Z,90.45
2019-03-21T06:56:21.367Z,89.89
2019-03-21T06:57:21.278Z,90.20
2019-03-21T06:58:21.346Z,90.00
2019-03-21T06:59:21.246Z,89.79
2019-03-21T07:00:21.374Z,90.31
2019-03-21T07:01:21.258Z,89.69
2019-03-21T07:02:21.308Z,90.00
2019-03-21T07:03:21.206Z,89.69
2019-03-21T07:04:21.297Z,89.48
2019-03-21T07:05:21.181Z,89.34
2019-03-21T07:06:21.224Z,89.23
2019-03-21T07:07:21.184Z,88.92
2019-03-21T07:08:21.211Z,88.31
2019-03-21T07:09:21.142Z,88.99
2019-03-21T07:10:21.225Z,87.75
2019-03-21T07:11:21.120Z,87.24
2019-03-21T07:12:21.181Z,87.65
2019-03-21T07:13:21.100Z,87.34
2019-03-21T07:14:21.153Z,86.88
2019-03-21T07:15:21.072Z,87.09
2019-03-21T07:16:21.171Z,85.34
2019-03-21T07:17:23.005Z,85.34
2019-03-21T07:18:21.105Z,85.03
2019-03-21T07:19:21.048Z,84.07
2019-03-21T07:20:21.108Z,83.45
2019-03-21T07:21:21.017Z,83.45
2019-03-21T07:22:21.164Z,83.97
2019-03-21T07:23:20.985Z,83.41
2019-03-21T07:24:21.012Z,83.83
2019-03-21T07:25:20.972Z,83.41
2019-03-21T07:26:21.052Z,82.79
2019-03-21T07:27:20.969Z,82.24
2019-03-21T07:28:21.042Z,82.55
2019-03-21T07:29:20.931Z,82.55
2019-03-21T07:30:20.955Z,82.14
2019-03-21T07:31:20.903Z,82.14
2019-03-21T07:32:21.002Z,82.31
2019-03-21T07:33:20.895Z,81.52
2019-03-21T07:34:20.990Z,81.90
2019-03-21T07:35:20.856Z,81.79
2019-03-21T07:36:20.894Z,80.97
2019-03-21T07:37:20.865Z,80.87
2019-03-21T07:38:20.840Z,80.87
2019-03-21T07:39:20.815Z,80.93
2019-03-21T07:40:20.812Z,80.73
2019-03-21T07:41:20.826Z,81.55
2019-03-21T07:42:20.835Z,81.04
2019-03-21T07:43:22.308Z,80.32
2019-03-21T07:44:20.845Z,80.38
2019-03-21T07:45:20.745Z,79.87
2019-03-21T07:46:20.760Z,79.97
2019-03-21T07:47:20.730Z,79.87
2019-03-21T07:48:20.810Z,79.46
2019-03-21T07:49:20.726Z,78.19
2019-03-21T07:50:20.788Z,78.19
2019-03-21T07:51:20.682Z,78.09
2019-03-21T07:52:20.735Z,77.88
2019-03-21T07:53:22.151Z,77.78
2019-03-21T07:54:20.748Z,77.78
2019-03-21T07:55:20.632Z,77.58
2019-03-21T07:56:20.735Z,78.16
2019-03-21T07:57:20.608Z,78.05
2019-03-21T07:58:20.668Z,77.47
2019-03-21T07:59:20.592Z,77.84
2019-03-21T08:00:20.693Z,77.74
2019-03-21T08:01:20.606Z,77.64
2019-03-21T08:02:20.693Z,77.44
2019-03-21T08:03:20.639Z,77.13
2019-03-21T08:04:20.542Z,77.03
2019-03-21T08:05:20.520Z,77.13
2019-03-21T08:06:20.594Z,77.13
2019-03-21T08:07:20.500Z,76.37
2019-03-21T08:08:20.606Z,76.78
2019-03-21T08:09:20.526Z,76.78
2019-03-21T08:10:20.530Z,76.44
2019-03-21T08:11:20.452Z,76.34
2019-03-21T08:12:20.537Z,76.65
2019-03-21T08:13:20.434Z,75.73
2019-03-21T08:14:20.585Z,76.24
2019-03-21T08:15:20.437Z,75.89
2019-03-21T08:16:20.467Z,75.31
2019-03-21T08:17:20.389Z,75.89
2019-03-21T08:18:20.515Z,75.07
2019-03-21T08:19:20.406Z,75.18
2019-03-21T08:20:20.380Z,73.50
2019-03-21T08:21:20.353Z,73.54
2019-03-21T08:22:20.399Z,74.73
2019-03-21T08:23:20.325Z,74.02
2019-03-21T08:24:20.410Z,74.22
2019-03-21T08:25:20.462Z,73.57
2019-03-21T08:26:20.322Z,73.57
2019-03-21T08:27:20.350Z,73.78
2019-03-21T08:28:20.337Z,73.57
2019-03-21T08:29:20.269Z,73.23
2019-03-21T08:30:20.382Z,72.72
2019-03-21T08:31:20.243Z,73.33
2019-03-21T08:32:20.267Z,72.82
2019-03-21T08:33:20.220Z,72.62
2019-03-21T08:34:20.268Z,72.99
2019-03-21T08:35:20.218Z,72.79
2019-03-21T08:36:20.287Z,72.58
2019-03-21T08:37:20.177Z,73.50
2019-03-21T08:38:20.206Z,73.40
2019-03-21T08:39:20.160Z,72.24
2019-03-21T08:40:20.251Z,72.55
2019-03-21T08:41:20.123Z,72.24
2019-03-21T08:42:20.241Z,72.55
2019-03-21T08:43:20.153Z,71.63
2019-03-21T08:44:20.179Z,71.39
2019-03-21T08:45:20.145Z,71.19
2019-03-21T08:46:20.148Z,70.17
2019-03-21T08:47:20.064Z,69.82
2019-03-21T08:48:20.167Z,70.75
2019-03-21T08:49:20.038Z,70.23
2019-03-21T08:50:20.114Z,70.34
2019-03-21T08:51:20.010Z,70.51
2019-03-21T08:52:20.096Z,69.59
2019-03-21T08:53:19.992Z,69.69
2019-03-21T08:54:20.013Z,69.79
2019-03-21T08:55:20.003Z,69.08
2019-03-21T08:56:20.160Z,69.18
2019-03-21T08:57:19.956Z,69.08
2019-03-21T08:58:20.031Z,68.84
2019-03-21T08:59:19.927Z,69.56
2019-03-21T09:00:19.981Z,70.10
2019-03-21T09:01:19.907Z,68.95
2019-03-21T09:02:19.972Z,69.05
2019-03-21T09:03:19.892Z,68.84
2019-03-21T09:04:19.971Z,69.22
2019-03-21T09:05:19.921Z,69.83
2019-03-21T09:06:19.940Z,69.70
2019-03-21T09:07:19.845Z,67.05
2019-03-21T09:08:19.892Z,66.74
2019-03-21T09:09:19.819Z,67.66
2019-03-21T09:10:19.932Z,67.05
2019-03-21T09:11:19.834Z,66.54
2019-03-21T09:12:19.820Z,66.23
2019-03-21T09:13:19.770Z,66.71
2019-03-21T09:14:19.846Z,65.89
2019-03-21T09:15:19.769Z,64.47
2019-03-21T09:16:19.783Z,64.57
2019-03-21T09:17:19.721Z,64.17
2019-03-21T09:18:19.757Z,64.87
2019-03-21T09:19:19.707Z,64.47
2019-03-21T09:20:19.797Z,64.95
2019-03-21T09:21:20.196Z,64.64
2019-03-21T09:22:19.787Z,65.56
2019-03-21T09:23:19.665Z,64.84
2019-03-21T09:24:19.701Z,64.92
2019-03-21T09:25:19.632Z,64.61
2019-03-21T09:26:19.744Z,63.90
2019-03-21T09:27:19.623Z,64.00
2019-03-21T09:28:19.727Z,64.51
2019-03-21T09:29:19.593Z,64.11
2019-03-21T09:30:19.659Z,63.87
2019-03-21T09:31:19.569Z,63.57
2019-03-21T09:32:19.769Z,62.85
2019-03-21T09:33:19.550Z,63.77
2019-03-21T09:34:19.576Z,62.41
2019-03-21T09:35:19.545Z,62.45
2019-03-21T09:36:19.611Z,62.04
2019-03-21T09:37:19.521Z,61.51
2019-03-21T09:38:19.624Z,61.83
2019-03-21T09:39:19.489Z,63.13
2019-03-21T09:40:19.504Z,62.11
2019-03-21T09:41:19.510Z,61.51
2019-03-21T09:42:19.532Z,61.20
2019-03-21T09:43:19.450Z,61.40
2019-03-21T09:44:19.562Z,61.20
2019-03-21T09:45:19.428Z,60.08
2019-03-21T09:46:19.462Z,61.10
2019-03-21T09:47:19.459Z,61.60
2019-03-21T09:48:19.457Z,61.07
2019-03-21T09:49:19.381Z,60.46
2019-03-21T09:50:19.481Z,60.56
2019-03-21T09:51:30.299Z,60.86
2019-03-21T09:52:20.381Z,61.47
2019-03-21T09:53:19.391Z,60.74
2019-03-21T09:54:19.329Z,60.43
2019-03-21T09:55:19.422Z,60.13
2019-03-21T09:56:19.298Z,60.02
2019-03-21T09:57:19.340Z,60.33
2019-03-21T09:58:19.266Z,60.43
2019-03-21T09:59:19.330Z,60.83
2019-03-21T10:00:19.249Z,60.20
2019-03-21T10:01:19.343Z,61.21
2019-03-21T10:02:19.279Z,59.89
2019-03-21T10:03:19.261Z,61.01
2019-03-21T10:04:19.210Z,60.71
2019-03-21T10:05:19.283Z,59.48
2019-03-21T10:06:19.181Z,60.37
2019-03-21T10:07:19.319Z,58.34
2019-03-21T10:08:19.184Z,60.20
2019-03-21T10:09:19.195Z,59.66
2019-03-21T10:10:19.139Z,59.26
2019-03-21T10:11:19.221Z,59.46
2019-03-21T10:12:19.162Z,58.65
2019-03-21T10:13:19.231Z,59.56
2019-03-21T10:14:19.130Z,60.68
2019-03-21T10:15:19.133Z,60.55
2019-03-21T10:16:19.144Z,60.44
2019-03-21T10:17:19.191Z,58.42
2019-03-21T10:18:19.082Z,58.31
2019-03-21T10:19:19.220Z,59.50
2019-03-21T10:20:19.033Z,59.91
2019-03-21T10:21:19.084Z,58.80
2019-03-21T10:22:19.050Z,58.59
2019-03-21T10:23:19.117Z,59.30
2019-03-21T10:24:18.997Z,59.30
2019-03-21T10:25:19.020Z,59.81
2019-03-21T10:26:19.012Z,58.80
2019-03-21T10:27:19.015Z,57.78
2019-03-21T10:28:18.974Z,57.86
2019-03-21T10:29:19.057Z,58.67
2019-03-21T10:30:18.921Z,58.16
2019-03-21T10:31:18.934Z,57.75
2019-03-21T10:32:18.896Z,58.56
2019-03-21T10:33:18.963Z,57.93
2019-03-21T10:34:18.959Z,56.61
2019-03-21T10:35:18.965Z,56.23
2019-03-21T10:36:18.855Z,56.23
2019-03-21T10:37:18.881Z,57.96
2019-03-21T10:38:18.823Z,57.04
2019-03-21T10:39:20.047Z,57.35
2019-03-21T10:40:18.811Z,56.64
2019-03-21T10:41:18.912Z,56.84
2019-03-21T10:42:18.791Z,57.83
2019-03-21T10:43:18.820Z,57.02
2019-03-21T10:44:18.761Z,57.83
2019-03-21T10:45:18.880Z,56.21
2019-03-21T10:46:18.742Z,57.02
2019-03-21T10:47:18.868Z,56.21
2019-03-21T10:48:18.720Z,56.38
2019-03-21T10:49:18.795Z,58.31
2019-03-21T10:50:18.723Z,57.20
2019-03-21T10:52:19.794Z,56.28
2019-03-21T10:53:18.795Z,56.48
2019-03-21T10:54:18.650Z,57.20
2019-03-21T10:55:18.727Z,56.08
2019-03-21T10:56:18.627Z,56.36
2019-03-21T10:58:19.729Z,56.26
2019-03-21T10:59:18.639Z,57.17
2019-03-21T11:00:18.622Z,54.61
2019-03-21T11:01:18.652Z,56.26
2019-03-21T11:02:18.558Z,55.93
2019-03-21T11:03:18.667Z,56.13
2019-03-21T11:04:18.547Z,54.64
2019-03-21T11:05:18.611Z,55.55
2019-03-21T11:06:18.519Z,54.64
2019-03-21T11:07:18.574Z,55.55
2019-03-21T11:08:18.503Z,54.91
2019-03-21T11:09:18.606Z,54.61
2019-03-21T11:10:18.500Z,54.31
2019-03-21T11:11:18.499Z,54.41
2019-03-21T11:12:18.453Z,54.00
2019-03-21T11:13:18.518Z,55.62
2019-03-21T11:14:18.438Z,54.31
2019-03-21T11:15:18.575Z,55.73
2019-03-21T11:16:18.433Z,54.82
2019-03-21T11:17:18.462Z,54.58
2019-03-21T11:18:18.416Z,53.78
2019-03-21T11:19:18.487Z,54.49
2019-03-21T11:20:18.406Z,52.67
2019-03-21T11:21:18.502Z,52.64
2019-03-21T11:22:18.363Z,53.85
2019-03-21T11:23:18.364Z,51.93
2019-03-21T11:24:18.322Z,52.74
2019-03-21T11:25:18.389Z,53.34
2019-03-21T11:26:18.323Z,54.05
2019-03-21T11:27:18.423Z,53.45
2019-03-21T11:28:18.285Z,54.16
2019-03-21T11:29:18.328Z,52.31
2019-03-21T11:30:18.269Z,52.31
2019-03-21T11:31:18.381Z,52.31
2019-03-21T11:32:18.246Z,54.05
2019-03-21T11:33:18.254Z,54.25
2019-03-21T11:34:18.208Z,51.61
2019-03-21T11:35:18.265Z,53.85
2019-03-21T11:36:18.266Z,52.03
2019-03-21T11:37:18.320Z,53.34
2019-03-21T11:38:18.162Z,53.42
2019-03-21T11:39:18.285Z,51.91
2019-03-21T11:40:18.149Z,51.78
2019-03-21T11:41:18.199Z,53.63
2019-03-21T11:42:18.160Z,53.83
2019-03-21T11:43:18.218Z,52.29
2019-03-21T11:44:18.137Z,52.79
2019-03-21T11:45:18.134Z,52.19
2019-03-21T11:46:18.154Z,53.50
2019-03-21T11:47:18.133Z,51.68
2019-03-21T11:48:18.106Z,51.78
2019-03-21T11:49:18.174Z,52.26
2019-03-21T11:50:18.063Z,50.87
2019-03-21T11:51:18.094Z,52.06
2019-03-21T11:52:18.686Z,51.89
2019-03-21T11:53:18.085Z,51.66
2019-03-21T11:54:18.038Z,53.47
2019-03-21T11:55:18.090Z,52.67
2019-03-21T11:56:17.983Z,52.06
2019-03-21T11:57:18.098Z,52.36
2019-03-21T11:58:18.006Z,52.54
2019-03-21T11:59:18.047Z,51.23
2019-03-21T12:00:17.928Z,51.03
2019-03-21T12:01:18.038Z,50.22
2019-03-21T12:02:26.766Z,51.03
2019-03-21T12:03:18.896Z,50.82
2019-03-21T12:04:17.995Z,50.02
2019-03-21T12:05:17.880Z,50.73
2019-03-21T12:06:17.957Z,50.90
2019-03-21T12:07:17.869Z,51.13
2019-03-21T12:08:17.911Z,51.03
2019-03-21T12:09:17.815Z,51.43
2019-03-21T12:10:17.883Z,51.93
2019-03-21T12:11:17.796Z,49.99
2019-03-21T12:12:17.910Z,49.90
2019-03-21T12:13:17.838Z,48.89
2019-03-21T12:14:17.818Z,51.20
2019-03-21T12:15:17.775Z,49.99
2019-03-21T12:16:17.827Z,51.10
2019-03-21T12:17:17.728Z,47.27
2019-03-21T12:18:17.878Z,49.49
2019-03-21T12:19:17.742Z,49.90
2019-03-21T12:20:17.772Z,50.20
2019-03-21T12:21:17.686Z,51.13
2019-03-21T12:22:29.217Z,50.10
2019-03-21T12:23:18.692Z,49.69
2019-03-21T12:24:17.781Z,49.39
2019-03-21T12:25:17.644Z,49.59
2019-03-21T12:26:17.695Z,50.90
2019-03-21T12:27:17.656Z,49.97
2019-03-21T12:28:17.745Z,48.76
2019-03-21T12:29:17.617Z,49.07
2019-03-21T12:30:17.634Z,47.63
2019-03-21T12:31:17.587Z,48.76
2019-03-21T12:32:17.646Z,50.07
2019-03-21T12:33:17.596Z,48.56
2019-03-21T12:34:17.649Z,49.47
2019-03-21T12:35:17.606Z,50.27
2019-03-21T12:36:17.581Z,49.47
2019-03-21T12:37:17.531Z,48.76
2019-03-21T12:38:17.579Z,48.66
2019-03-21T12:39:17.518Z,48.26
2019-03-21T12:40:17.588Z,49.16
2019-03-21T12:41:17.499Z,49.97
2019-03-21T12:42:17.494Z,48.96
2019-03-21T12:43:17.522Z,48.46
2019-03-21T12:44:17.545Z,48.76
2019-03-21T12:45:17.433Z,48.46
2019-03-21T12:46:17.527Z,48.86
2019-03-21T12:47:17.422Z,49.35
2019-03-21T12:48:17.440Z,48.82
2019-03-21T12:49:17.438Z,48.54
2019-03-21T12:50:17.548Z,47.23
2019-03-21T12:51:17.365Z,48.74
2019-03-21T12:52:17.470Z,48.34
2019-03-21T12:53:17.340Z,47.63
2019-03-21T12:54:17.406Z,48.72
2019-03-21T12:55:17.327Z,48.44
2019-03-21T12:56:17.403Z,48.72
2019-03-21T12:57:17.331Z,47.31
2019-03-21T12:58:17.406Z,48.69
2019-03-21T12:59:17.323Z,46.18
2019-03-21T13:00:17.354Z,47.19
2019-03-21T13:01:17.307Z,47.08
2019-03-21T13:02:17.333Z,47.08
2019-03-21T13:03:17.257Z,47.08
2019-03-21T13:04:17.367Z,47.59
2019-03-21T13:05:17.210Z,47.59
2019-03-21T13:06:17.261Z,47.08
2019-03-21T13:07:17.464Z,45.47
2019-03-21T13:08:17.287Z,47.99
2019-03-21T13:09:17.190Z,47.79
2019-03-21T13:10:17.289Z,47.99
2019-03-21T13:11:17.149Z,48.29
2019-03-21T13:12:17.197Z,46.58